メインページ
METAR-TAF:

METAR-TAF

空港 :

キュラソー島, オランダ領アンティル

ハト国際空港

緯度: 12-12N, 経度: 068-58W, 海抜: 9m

現時点の気象観測

当レポートは29分前の17:00(UTC)に作成
の風 13kt、東/北東から南東の間で変化する
気温 32°C
湿度 67%
気圧 1011 hPa
視程10km以上
高度2300ftの雲は散在している

METAR: TNCC 231700Z 09013KT 070V130 9999 SCT023 32/25 Q1011 NOSIG

時間: 13:29 (17:29 UTC)

予報

当レポートは7時間29分前の10:00(UTC)に作成
予報は23日の 12時(UTC)から 24日の 12時(UTC)まで有効
の風 14kt
視程10km以上
高度2000ftの雲は散在している
確率 30% :
23日の 12時(UTC)から 23日の 16時(UTC)まで一時的に
視程: 8000m
高度1500ftの千切れ雲あり
にわか雨

TAF: TNCC 231000Z 2312/2412 10014KT 9999 SCT020 PROB30 TEMPO 2312/2316 8000 SHRA BKN015

4,000以上の空港の気象観測と天気予報(METAR報とTAF報)

利用可能な観測所は地図上に黄色い丸と赤い丸で示す。

丸の上にカーソルを重ねると観測所名を参照できる。

次にクリックすると気象観測と天気予報を参照できる。

マップの切り替え:黒色「×」印の緑ボタンをクリックして拡大、「-」印の緑ボタンをクリックして縮小、緑色の三角印をクリックして隣りの地図に切り替え


METAR-TAF: